Wetterdaten: Woche 13.05.24 - 19.05.24 (KW20)
Datum Zeit Temp. I. Temp. A. Feuchte I. Feuchte A. Luftdruck Regen Wind Richtung Sonnenschein Solar Taupunkt Windchill Windböen
13.05.2024 00:00 22,4 °C 11,5 °C 56 % 81 % 1017,5 hPa 0,0 l/m² 7,5 km/h (2 Bft) O-NO 0,00 h 0 W/m² 8,3 °C 10,8 °C 10,7 km/h (2 Bft)
13.05.2024 01:00 22,3 °C 10,6 °C 56 % 82 % 1017,2 hPa 0,0 l/m² 5,6 km/h (2 Bft) O-NO 0,00 h 0 W/m² 7,7 °C 10,5 °C 7,7 km/h (2 Bft)
13.05.2024 02:00 22,3 °C 10,0 °C 56 % 83 % 1017,1 hPa 0,0 l/m² 6,0 km/h (2 Bft) O-NO 0,00 h 0 W/m² 7,2 °C 9,7 °C 8,7 km/h (2 Bft)
13.05.2024 03:00 22,2 °C 8,7 °C 56 % 85 % 1016,9 hPa 0,0 l/m² 1,6 km/h (1 Bft) O-NO 0,00 h 0 W/m² 6,3 °C 8,7 °C 3,0 km/h (1 Bft)
13.05.2024 04:00 22,2 °C 7,7 °C 55 % 88 % 1016,8 hPa 0,0 l/m² 0,2 km/h (0 Bft) O-NO 0,00 h 0 W/m² 5,9 °C 7,7 °C 0,4 km/h (0 Bft)
13.05.2024 05:00 22,2 °C 7,5 °C 55 % 89 % 1016,7 hPa 0,0 l/m² 4,2 km/h (1 Bft) O-NO 0,00 h 12 W/m² 5,8 °C 7,5 °C 6,2 km/h (2 Bft)
13.05.2024 06:00 22,2 °C 8,8 °C 55 % 86 % 1016,9 hPa 0,0 l/m² 3,9 km/h (1 Bft) O-NO 0,50 h 59 W/m² 6,6 °C 8,8 °C 6,7 km/h (2 Bft)
13.05.2024 07:00 22,1 °C 11,8 °C 54 % 78 % 1016,9 hPa 0,0 l/m² 6,3 km/h (2 Bft) O-NO 1,00 h 192 W/m² 8,1 °C 11,5 °C 9,7 km/h (2 Bft)
13.05.2024 08:00 22,1 °C 15,3 °C 54 % 70 % 1016,7 hPa 0,0 l/m² 5,6 km/h (2 Bft) O 1,00 h 353 W/m² 9,8 °C 15,0 °C 8,6 km/h (2 Bft)
13.05.2024 09:00 22,2 °C 18,2 °C 54 % 64 % 1016,4 hPa 0,0 l/m² 6,6 km/h (2 Bft) O-NO 1,00 h 581 W/m² 11,3 °C 17,8 °C 10,5 km/h (2 Bft)
13.05.2024 10:00 22,3 °C 20,7 °C 54 % 60 % 1016,4 hPa 0,0 l/m² 6,4 km/h (2 Bft) O 1,00 h 729 W/m² 12,7 °C 20,3 °C 10,5 km/h (2 Bft)
13.05.2024 11:00 22,4 °C 22,3 °C 54 % 56 % 1016,0 hPa 0,0 l/m² 10,4 km/h (2 Bft) O 1,00 h 830 W/m² 13,2 °C 21,1 °C 15,5 km/h (3 Bft)
13.05.2024 12:00 22,5 °C 23,4 °C 53 % 53 % 1015,4 hPa 0,0 l/m² 11,6 km/h (2 Bft) O-NO 1,00 h 883 W/m² 13,2 °C 22,1 °C 16,6 km/h (3 Bft)
13.05.2024 13:00 22,6 °C 24,1 °C 53 % 49 % 1014,8 hPa 0,0 l/m² 10,9 km/h (2 Bft) O 1,00 h 888 W/m² 12,7 °C 23,0 °C 16,2 km/h (3 Bft)
13.05.2024 14:00 22,7 °C 24,7 °C 53 % 46 % 1014,4 hPa 0,0 l/m² 12,4 km/h (2 Bft) O 1,00 h 867 W/m² 12,3 °C 23,4 °C 18,2 km/h (3 Bft)
13.05.2024 15:00 22,8 °C 25,0 °C 54 % 43 % 1013,8 hPa 0,0 l/m² 14,5 km/h (3 Bft) O-NO 1,00 h 763 W/m² 11,5 °C 23,4 °C 20,7 km/h (4 Bft)
13.05.2024 16:00 22,7 °C 24,8 °C 54 % 42 % 1013,3 hPa 0,0 l/m² 13,7 km/h (3 Bft) O-NO 1,00 h 630 W/m² 11,0 °C 23,3 °C 19,7 km/h (3 Bft)
13.05.2024 17:00 22,7 °C 24,1 °C 54 % 43 % 1012,8 hPa 0,0 l/m² 13,9 km/h (3 Bft) O-NO 1,00 h 472 W/m² 10,6 °C 22,4 °C 20,1 km/h (4 Bft)
13.05.2024 18:00 22,7 °C 23,6 °C 52 % 40 % 1012,5 hPa 0,0 l/m² 13,5 km/h (3 Bft) O-NO 1,00 h 282 W/m² 9,3 °C 21,9 °C 19,9 km/h (4 Bft)
13.05.2024 19:00 22,6 °C 22,0 °C 48 % 40 % 1012,4 hPa 0,0 l/m² 9,6 km/h (2 Bft) O-NO 0,72 h 71 W/m² 7,7 °C 21,1 °C 15,2 km/h (3 Bft)
13.05.2024 20:00 22,6 °C 18,8 °C 49 % 49 % 1012,5 hPa 0,0 l/m² 5,7 km/h (2 Bft) O-NO 0,00 h 14 W/m² 7,8 °C 18,7 °C 8,8 km/h (2 Bft)
13.05.2024 21:00 22,9 °C 14,9 °C 50 % 66 % 1012,7 hPa 0,0 l/m² 2,7 km/h (1 Bft) O-NO 0,00 h 0 W/m² 8,5 °C 14,9 °C 3,6 km/h (1 Bft)
13.05.2024 22:00 22,8 °C 12,0 °C 51 % 77 % 1012,7 hPa 0,0 l/m² 4,6 km/h (1 Bft) O-NO 0,00 h 0 W/m² 8,0 °C 12,0 °C 5,9 km/h (2 Bft)
13.05.2024 23:00 22,6 °C 12,0 °C 52 % 74 % 1012,7 hPa 0,0 l/m² 6,4 km/h (2 Bft) O-NO 0,00 h 0 W/m² 7,5 °C 11,7 °C 9,0 km/h (2 Bft)
14.05.2024 00:00 22,4 °C 11,2 °C 52 % 77 % 1012,7 hPa 0,0 l/m² 6,8 km/h (2 Bft) O-NO 0,00 h 0 W/m² 7,3 °C 10,9 °C 9,5 km/h (2 Bft)
14.05.2024 01:00 22,3 °C 10,2 °C 53 % 79 % 1012,5 hPa 0,0 l/m² 4,6 km/h (1 Bft) O 0,00 h 0 W/m² 6,8 °C 10,2 °C 6,0 km/h (2 Bft)
14.05.2024 02:00 22,3 °C 8,4 °C 53 % 86 % 1012,2 hPa 0,0 l/m² 0,0 km/h (0 Bft) O-SO 0,00 h 0 W/m² 6,1 °C 8,4 °C 0,1 km/h (0 Bft)
14.05.2024 03:00 22,3 °C 7,6 °C 53 % 89 % 1012,1 hPa 0,0 l/m² 0,1 km/h (0 Bft) O-SO 0,00 h 0 W/m² 5,9 °C 7,6 °C 0,3 km/h (0 Bft)
14.05.2024 04:00 22,2 °C 7,1 °C 53 % 89 % 1012,2 hPa 0,0 l/m² 0,0 km/h (0 Bft) O-SO 0,00 h 0 W/m² 5,4 °C 7,1 °C 0,0 km/h (0 Bft)
14.05.2024 05:00 22,2 °C 6,1 °C 53 % 90 % 1012,3 hPa 0,0 l/m² 0,5 km/h (0 Bft) S 0,00 h 10 W/m² 4,5 °C 6,1 °C 1,1 km/h (1 Bft)
14.05.2024 06:00 22,2 °C 7,4 °C 53 % 90 % 1012,4 hPa 0,0 l/m² 0,1 km/h (0 Bft) S 0,48 h 59 W/m² 5,8 °C 7,4 °C 0,2 km/h (0 Bft)
14.05.2024 07:00 22,1 °C 11,2 °C 52 % 83 % 1012,3 hPa 0,0 l/m² 2,4 km/h (1 Bft) S 1,00 h 194 W/m² 8,5 °C 11,1 °C 3,9 km/h (1 Bft)
14.05.2024 08:00 22,2 °C 16,3 °C 52 % 73 % 1012,1 hPa 0,0 l/m² 8,8 km/h (2 Bft) O 1,02 h 351 W/m² 11,3 °C 15,2 °C 13,2 km/h (3 Bft)
14.05.2024 09:00 22,2 °C 20,3 °C 52 % 61 % 1012,0 hPa 0,0 l/m² 14,2 km/h (3 Bft) O 1,00 h 594 W/m² 12,4 °C 17,8 °C 19,6 km/h (3 Bft)
14.05.2024 10:00 22,3 °C 22,1 °C 52 % 53 % 1011,8 hPa 0,0 l/m² 18,3 km/h (3 Bft) O 1,00 h 735 W/m² 12,2 °C 19,3 °C 24,6 km/h (4 Bft)
14.05.2024 11:00 22,3 °C 23,2 °C 52 % 49 % 1011,6 hPa 0,0 l/m² 19,3 km/h (3 Bft) O-SO 1,00 h 836 W/m² 12,0 °C 20,5 °C 26,3 km/h (4 Bft)
14.05.2024 12:00 22,3 °C 24,0 °C 52 % 45 % 1011,4 hPa 0,0 l/m² 20,9 km/h (4 Bft) O 1,00 h 890 W/m² 11,4 °C 21,3 °C 29,2 km/h (5 Bft)
14.05.2024 13:00 22,4 °C 24,5 °C 52 % 42 % 1011,2 hPa 0,0 l/m² 20,9 km/h (4 Bft) O 1,00 h 901 W/m² 10,6 °C 22,0 °C 27,9 km/h (5 Bft)
14.05.2024 14:00 22,5 °C 24,9 °C 52 % 42 % 1010,6 hPa 0,0 l/m² 18,4 km/h (3 Bft) O-SO 1,00 h 853 W/m² 11,0 °C 22,8 °C 26,2 km/h (4 Bft)
14.05.2024 15:00 22,6 °C 25,3 °C 52 % 40 % 1010,1 hPa 0,0 l/m² 19,2 km/h (3 Bft) O 1,00 h 764 W/m² 10,6 °C 23,1 °C 26,0 km/h (4 Bft)
14.05.2024 16:00 22,6 °C 25,0 °C 52 % 39 % 1009,7 hPa 0,0 l/m² 19,1 km/h (3 Bft) O 1,00 h 631 W/m² 10,2 °C 22,8 °C 25,9 km/h (4 Bft)
14.05.2024 17:00 22,6 °C 24,7 °C 52 % 40 % 1009,4 hPa 0,0 l/m² 19,8 km/h (4 Bft) O 1,00 h 474 W/m² 10,4 °C 22,4 °C 28,1 km/h (5 Bft)
14.05.2024 18:00 22,7 °C 24,0 °C 53 % 42 % 1009,1 hPa 0,0 l/m² 18,3 km/h (3 Bft) O 1,00 h 280 W/m² 10,2 °C 21,6 °C 26,1 km/h (4 Bft)
14.05.2024 19:00 22,6 °C 22,7 °C 50 % 45 % 1009,3 hPa 0,0 l/m² 15,5 km/h (3 Bft) O 0,77 h 70 W/m² 10,0 °C 20,5 °C 21,6 km/h (4 Bft)
14.05.2024 20:00 22,6 °C 20,0 °C 52 % 53 % 1009,4 hPa 0,0 l/m² 8,3 km/h (2 Bft) O 0,00 h 15 W/m² 10,1 °C 19,3 °C 11,9 km/h (2 Bft)
14.05.2024 21:00 22,7 °C 16,8 °C 52 % 63 % 1009,8 hPa 0,0 l/m² 6,0 km/h (2 Bft) O-NO 0,00 h 0 W/m² 9,7 °C 16,7 °C 8,2 km/h (2 Bft)
14.05.2024 22:00 22,6 °C 15,2 °C 53 % 66 % 1010,1 hPa 0,0 l/m² 6,2 km/h (2 Bft) O-NO 0,00 h 0 W/m² 8,9 °C 15,0 °C 9,3 km/h (2 Bft)
14.05.2024 23:00 22,5 °C 13,5 °C 53 % 71 % 1010,3 hPa 0,0 l/m² 6,1 km/h (2 Bft) O-NO 0,00 h 0 W/m² 8,4 °C 13,4 °C 9,0 km/h (2 Bft)
15.05.2024 00:00 22,3 °C 12,6 °C 53 % 74 % 1010,5 hPa 0,0 l/m² 6,7 km/h (2 Bft) O-NO 0,00 h 0 W/m² 8,1 °C 12,2 °C 9,7 km/h (2 Bft)
15.05.2024 01:00 22,3 °C 11,9 °C 53 % 75 % 1010,4 hPa 0,0 l/m² 7,3 km/h (2 Bft) O-NO 0,00 h 0 W/m² 7,6 °C 11,3 °C 11,1 km/h (2 Bft)
15.05.2024 02:00 22,3 °C 11,2 °C 53 % 77 % 1010,2 hPa 0,0 l/m² 7,1 km/h (2 Bft) O-NO 0,00 h 0 W/m² 7,4 °C 10,6 °C 11,1 km/h (2 Bft)
15.05.2024 03:00 22,2 °C 10,2 °C 53 % 80 % 1010,0 hPa 0,0 l/m² 5,7 km/h (2 Bft) O-NO 0,00 h 0 W/m² 6,9 °C 10,0 °C 8,7 km/h (2 Bft)
15.05.2024 04:00 22,2 °C 9,6 °C 53 % 82 % 1009,9 hPa 0,0 l/m² 6,4 km/h (2 Bft) O-NO 0,00 h 0 W/m² 6,7 °C 9,3 °C 10,6 km/h (2 Bft)
15.05.2024 05:00 22,3 °C 9,6 °C 53 % 82 % 1010,0 hPa 0,0 l/m² 6,9 km/h (2 Bft) O 0,00 h 11 W/m² 6,7 °C 9,2 °C 11,1 km/h (2 Bft)
15.05.2024 06:00 22,2 °C 11,2 °C 53 % 78 % 1010,0 hPa 0,0 l/m² 8,4 km/h (2 Bft) O-NO 0,53 h 61 W/m² 7,5 °C 10,0 °C 13,6 km/h (3 Bft)
15.05.2024 07:00 22,1 °C 14,9 °C 52 % 68 % 1009,8 hPa 0,0 l/m² 10,4 km/h (2 Bft) O-NO 1,00 h 219 W/m² 9,1 °C 13,0 °C 15,5 km/h (3 Bft)
15.05.2024 08:00 22,2 °C 17,8 °C 52 % 60 % 1009,8 hPa 0,0 l/m² 16,3 km/h (3 Bft) O 1,00 h 334 W/m² 10,0 °C 14,3 °C 23,2 km/h (4 Bft)
15.05.2024 09:00 22,2 °C 20,4 °C 53 % 53 % 1009,6 hPa 0,0 l/m² 18,4 km/h (3 Bft) O 1,00 h 609 W/m² 10,4 °C 17,1 °C 25,4 km/h (4 Bft)
15.05.2024 10:00 22,3 °C 22,2 °C 53 % 48 % 1009,4 hPa 0,0 l/m² 20,5 km/h (4 Bft) O 1,00 h 750 W/m² 10,6 °C 19,0 °C 28,9 km/h (5 Bft)
15.05.2024 11:00 22,4 °C 23,5 °C 52 % 45 % 1009,2 hPa 0,0 l/m² 22,7 km/h (4 Bft) O 1,00 h 780 W/m² 10,9 °C 20,5 °C 31,6 km/h (5 Bft)
15.05.2024 12:00 22,5 °C 24,8 °C 52 % 41 % 1008,9 hPa 0,0 l/m² 24,5 km/h (4 Bft) O 1,00 h 707 W/m² 10,7 °C 21,9 °C 34,5 km/h (5 Bft)
15.05.2024 13:00 22,6 °C 25,6 °C 53 % 37 % 1008,5 hPa 0,0 l/m² 24,9 km/h (4 Bft) O 1,00 h 676 W/m² 10,0 °C 23,1 °C 35,2 km/h (5 Bft)
15.05.2024 14:00 22,7 °C 26,0 °C 53 % 37 % 1008,1 hPa 0,0 l/m² 25,0 km/h (4 Bft) O 1,00 h 722 W/m² 10,2 °C 23,5 °C 34,8 km/h (5 Bft)
15.05.2024 15:00 22,9 °C 26,1 °C 53 % 36 % 1007,8 hPa 0,0 l/m² 23,7 km/h (4 Bft) O 1,00 h 739 W/m² 9,9 °C 23,8 °C 32,4 km/h (5 Bft)
15.05.2024 16:00 22,9 °C 25,9 °C 52 % 35 % 1007,4 hPa 0,0 l/m² 23,9 km/h (4 Bft) O 1,00 h 643 W/m² 9,4 °C 23,5 °C 33,4 km/h (5 Bft)
15.05.2024 17:00 22,8 °C 25,5 °C 52 % 36 % 1007,4 hPa 0,0 l/m² 22,6 km/h (4 Bft) O 1,00 h 489 W/m² 9,1 °C 23,1 °C 30,6 km/h (5 Bft)
15.05.2024 18:00 22,8 °C 24,7 °C 53 % 36 % 1007,4 hPa 0,0 l/m² 21,3 km/h (4 Bft) O 0,98 h 294 W/m² 8,8 °C 22,2 °C 30,1 km/h (5 Bft)
15.05.2024 19:00 22,8 °C 23,6 °C 53 % 39 % 1007,6 hPa 0,0 l/m² 17,9 km/h (3 Bft) O 0,82 h 72 W/m² 8,8 °C 21,2 °C 24,3 km/h (4 Bft)
15.05.2024 20:00 22,9 °C 22,3 °C 54 % 40 % 1007,8 hPa 0,0 l/m² 18,6 km/h (3 Bft) O 0,00 h 17 W/m² 8,2 °C 19,5 °C 24,8 km/h (4 Bft)
15.05.2024 21:00 22,9 °C 20,2 °C 54 % 47 % 1008,3 hPa 0,0 l/m² 13,4 km/h (3 Bft) O 0,00 h 0 W/m² 8,5 °C 18,1 °C 18,2 km/h (3 Bft)
15.05.2024 22:00 22,8 °C 17,0 °C 55 % 59 % 1008,5 hPa 0,0 l/m² 7,2 km/h (2 Bft) O 0,00 h 0 W/m² 8,9 °C 16,5 °C 10,2 km/h (2 Bft)
15.05.2024 23:00 22,7 °C 15,7 °C 55 % 64 % 1008,6 hPa 0,0 l/m² 8,5 km/h (2 Bft) O-NO 0,00 h 0 W/m² 8,8 °C 14,6 °C 12,5 km/h (2 Bft)
16.05.2024 00:00 22,6 °C 14,7 °C 55 % 67 % 1008,6 hPa 0,0 l/m² 8,9 km/h (2 Bft) O 0,00 h 0 W/m² 8,5 °C 13,3 °C 13,8 km/h (3 Bft)
16.05.2024 01:00 22,6 °C 13,9 °C 55 % 68 % 1008,4 hPa 0,0 l/m² 8,5 km/h (2 Bft) O-NO 0,00 h 0 W/m² 8,2 °C 12,7 °C 12,5 km/h (2 Bft)
16.05.2024 02:00 22,6 °C 13,4 °C 55 % 70 % 1008,3 hPa 0,0 l/m² 10,0 km/h (2 Bft) O-NO 0,00 h 0 W/m² 8,0 °C 11,4 °C 14,5 km/h (3 Bft)
16.05.2024 03:00 22,5 °C 13,0 °C 54 % 72 % 1008,1 hPa 0,0 l/m² 10,1 km/h (2 Bft) O-NO 0,00 h 0 W/m² 8,2 °C 10,9 °C 15,5 km/h (3 Bft)
16.05.2024 04:00 22,4 °C 12,0 °C 54 % 77 % 1007,8 hPa 0,0 l/m² 7,1 km/h (2 Bft) O 0,00 h 0 W/m² 8,1 °C 11,4 °C 11,1 km/h (2 Bft)
16.05.2024 05:00 22,5 °C 11,7 °C 54 % 79 % 1007,7 hPa 0,0 l/m² 6,9 km/h (2 Bft) O-NO 0,00 h 13 W/m² 8,1 °C 11,2 °C 12,2 km/h (2 Bft)
16.05.2024 06:00 22,4 °C 13,3 °C 55 % 75 % 1007,5 hPa 0,0 l/m² 10,9 km/h (2 Bft) O 0,62 h 77 W/m² 9,0 °C 10,9 °C 16,8 km/h (3 Bft)
16.05.2024 07:00 22,4 °C 15,8 °C 54 % 69 % 1007,3 hPa 0,0 l/m² 14,2 km/h (3 Bft) O 1,00 h 232 W/m² 10,3 °C 12,6 °C 20,2 km/h (4 Bft)
16.05.2024 08:00 22,4 °C 18,5 °C 54 % 63 % 1007,4 hPa 0,0 l/m² 16,8 km/h (3 Bft) O 1,00 h 378 W/m² 11,4 °C 15,0 °C 23,4 km/h (4 Bft)
16.05.2024 09:00 22,4 °C 19,9 °C 54 % 60 % 1007,3 hPa 0,0 l/m² 17,5 km/h (3 Bft) O-SO 1,00 h 550 W/m² 11,9 °C 16,6 °C 24,0 km/h (4 Bft)
16.05.2024 10:00 22,6 °C 21,0 °C 53 % 59 % 1007,2 hPa 0,0 l/m² 17,7 km/h (3 Bft) O 1,00 h 588 W/m² 12,6 °C 17,9 °C 24,0 km/h (4 Bft)
16.05.2024 11:00 22,6 °C 21,5 °C 53 % 58 % 1007,2 hPa 0,0 l/m² 17,4 km/h (3 Bft) O 1,00 h 480 W/m² 12,8 °C 18,6 °C 23,5 km/h (4 Bft)
16.05.2024 12:00 22,6 °C 21,1 °C 53 % 58 % 1007,4 hPa 0,0 l/m² 16,0 km/h (3 Bft) O 1,00 h 311 W/m² 12,6 °C 18,4 °C 21,8 km/h (4 Bft)
16.05.2024 13:00 22,5 °C 20,5 °C 53 % 59 % 1007,8 hPa 0,0 l/m² 17,3 km/h (3 Bft) O-SO 1,00 h 256 W/m² 12,3 °C 17,4 °C 23,3 km/h (4 Bft)
16.05.2024 14:00 22,4 °C 19,5 °C 53 % 63 % 1007,9 hPa 0,0 l/m² 11,9 km/h (2 Bft) S-SO 1,00 h 146 W/m² 12,3 °C 17,6 °C 16,7 km/h (3 Bft)
16.05.2024 15:00 22,6 °C 19,1 °C 54 % 72 % 1007,8 hPa 0,0 l/m² 8,9 km/h (2 Bft) S 1,00 h 239 W/m² 14,0 °C 18,1 °C 12,5 km/h (2 Bft)
16.05.2024 16:00 22,5 °C 18,2 °C 54 % 76 % 1007,9 hPa 0,0 l/m² 12,4 km/h (2 Bft) O-SO 1,00 h 182 W/m² 13,9 °C 16,0 °C 17,2 km/h (3 Bft)
16.05.2024 17:00 22,5 °C 16,4 °C 55 % 78 % 1008,1 hPa 0,2 l/m² 16,4 km/h (3 Bft) O 1,00 h 80 W/m² 12,5 °C 12,6 °C 21,7 km/h (4 Bft)
16.05.2024 18:00 22,5 °C 15,9 °C 56 % 83 % 1007,8 hPa 0,0 l/m² 6,9 km/h (2 Bft) O 0,92 h 67 W/m² 13,0 °C 15,4 °C 10,3 km/h (2 Bft)
16.05.2024 19:00 22,4 °C 16,2 °C 56 % 83 % 1007,7 hPa 0,0 l/m² 6,7 km/h (2 Bft) O-NO 0,93 h 69 W/m² 13,3 °C 15,7 °C 10,1 km/h (2 Bft)
16.05.2024 20:00 22,5 °C 16,4 °C 56 % 79 % 1007,7 hPa 0,0 l/m² 6,8 km/h (2 Bft) O-NO 0,17 h 32 W/m² 12,8 °C 15,9 °C 11,0 km/h (2 Bft)
16.05.2024 21:00 22,6 °C 16,2 °C 56 % 77 % 1008,0 hPa 0,0 l/m² 11,2 km/h (2 Bft) O-NO 0,00 h 0 W/m² 12,1 °C 14,0 °C 16,1 km/h (3 Bft)
16.05.2024 22:00 22,5 °C 15,8 °C 56 % 77 % 1008,0 hPa 0,0 l/m² 10,0 km/h (2 Bft) O-NO 0,00 h 0 W/m² 11,7 °C 14,1 °C 15,1 km/h (3 Bft)
16.05.2024 23:00 22,3 °C 15,1 °C 56 % 77 % 1008,0 hPa 0,0 l/m² 9,8 km/h (2 Bft) O-NO 0,00 h 0 W/m² 11,1 °C 13,4 °C 14,6 km/h (3 Bft)
17.05.2024 00:00 22,3 °C 14,3 °C 56 % 79 % 1007,8 hPa 0,0 l/m² 9,2 km/h (2 Bft) O-NO 0,00 h 0 W/m² 10,7 °C 12,8 °C 14,7 km/h (3 Bft)
17.05.2024 01:00 22,3 °C 14,2 °C 56 % 78 % 1007,3 hPa 0,0 l/m² 9,2 km/h (2 Bft) O-NO 0,00 h 0 W/m² 10,5 °C 12,7 °C 15,0 km/h (3 Bft)
17.05.2024 02:00 22,3 °C 13,8 °C 56 % 79 % 1007,1 hPa 0,0 l/m² 9,7 km/h (2 Bft) O-NO 0,00 h 0 W/m² 10,3 °C 12,1 °C 15,0 km/h (3 Bft)
17.05.2024 03:00 22,2 °C 13,5 °C 55 % 80 % 1007,1 hPa 0,0 l/m² 6,2 km/h (2 Bft) O 0,00 h 0 W/m² 10,0 °C 13,1 °C 9,8 km/h (2 Bft)
17.05.2024 04:00 22,2 °C 12,6 °C 55 % 82 % 1007,0 hPa 0,0 l/m² 6,1 km/h (2 Bft) O 0,00 h 0 W/m² 9,7 °C 12,4 °C 9,6 km/h (2 Bft)
17.05.2024 05:00 22,2 °C 14,7 °C 56 % 75 % 1006,9 hPa 0,0 l/m² 11,7 km/h (2 Bft) O 0,00 h 9 W/m² 10,3 °C 12,2 °C 18,2 km/h (3 Bft)
17.05.2024 06:00 22,1 °C 15,9 °C 55 % 69 % 1006,9 hPa 0,0 l/m² 12,3 km/h (2 Bft) O-NO 0,40 h 45 W/m² 10,3 °C 13,3 °C 20,1 km/h (4 Bft)
17.05.2024 07:00 22,1 °C 16,7 °C 54 % 67 % 1006,8 hPa 0,0 l/m² 14,1 km/h (3 Bft) O-NO 0,90 h 100 W/m² 10,5 °C 13,5 °C 21,6 km/h (4 Bft)
17.05.2024 08:00 22,1 °C 19,2 °C 54 % 60 % 1006,6 hPa 0,0 l/m² 20,0 km/h (4 Bft) O-NO 1,00 h 338 W/m² 11,2 °C 15,2 °C 29,8 km/h (5 Bft)
17.05.2024 09:00 22,1 °C 20,7 °C 54 % 55 % 1006,6 hPa 0,0 l/m² 24,2 km/h (4 Bft) O 1,00 h 595 W/m² 11,3 °C 16,5 °C 33,7 km/h (5 Bft)
17.05.2024 10:00 22,3 °C 21,3 °C 54 % 52 % 1006,8 hPa 0,0 l/m² 25,9 km/h (4 Bft) O 1,00 h 590 W/m² 11,2 °C 17,1 °C 35,6 km/h (5 Bft)
17.05.2024 11:00 22,3 °C 20,7 °C 54 % 54 % 1007,0 hPa 0,0 l/m² 25,0 km/h (4 Bft) O 1,00 h 415 W/m² 11,1 °C 16,4 °C 34,4 km/h (5 Bft)
17.05.2024 12:00 22,4 °C 21,5 °C 54 % 55 % 1007,3 hPa 0,0 l/m² 25,9 km/h (4 Bft) O-SO 1,00 h 675 W/m² 11,9 °C 17,3 °C 35,9 km/h (5 Bft)
17.05.2024 13:00 22,6 °C 22,0 °C 53 % 54 % 1007,3 hPa 0,0 l/m² 21,5 km/h (4 Bft) O-SO 1,00 h 745 W/m² 12,3 °C 18,6 °C 29,2 km/h (5 Bft)
17.05.2024 14:00 22,6 °C 20,4 °C 53 % 56 % 1007,3 hPa 0,0 l/m² 17,7 km/h (3 Bft) O-SO 1,00 h 224 W/m² 11,2 °C 17,2 °C 24,1 km/h (4 Bft)
17.05.2024 15:00 22,7 °C 20,0 °C 54 % 57 % 1007,5 hPa 0,0 l/m² 20,3 km/h (4 Bft) O 1,00 h 362 W/m² 11,3 °C 16,2 °C 27,7 km/h (5 Bft)
17.05.2024 16:00 22,6 °C 18,1 °C 54 % 65 % 1007,9 hPa 0,0 l/m² 16,0 km/h (3 Bft) O-SO 1,00 h 215 W/m² 11,4 °C 14,8 °C 22,1 km/h (4 Bft)
17.05.2024 17:00 22,4 °C 17,7 °C 54 % 66 % 1008,1 hPa 0,0 l/m² 15,7 km/h (3 Bft) O 1,00 h 193 W/m² 11,3 °C 14,3 °C 20,9 km/h (4 Bft)
17.05.2024 18:00 22,4 °C 17,7 °C 54 % 67 % 1008,2 hPa 0,0 l/m² 16,1 km/h (3 Bft) O 1,00 h 145 W/m² 11,4 °C 14,1 °C 21,0 km/h (4 Bft)
17.05.2024 19:00 22,5 °C 17,0 °C 55 % 68 % 1008,4 hPa 0,0 l/m² 14,7 km/h (3 Bft) O 0,32 h 51 W/m² 11,1 °C 13,8 °C 19,8 km/h (4 Bft)
17.05.2024 20:00 22,5 °C 16,3 °C 56 % 72 % 1008,6 hPa 0,0 l/m² 9,5 km/h (2 Bft) O 0,00 h 20 W/m² 11,3 °C 14,8 °C 14,1 km/h (3 Bft)
17.05.2024 21:00 22,6 °C 15,5 °C 56 % 75 % 1009,0 hPa 0,0 l/m² 7,8 km/h (2 Bft) O 0,00 h 0 W/m² 11,1 °C 14,6 °C 11,5 km/h (2 Bft)
17.05.2024 22:00 22,5 °C 14,3 °C 55 % 79 % 1009,0 hPa 0,0 l/m² 7,0 km/h (2 Bft) O-NO 0,00 h 0 W/m² 10,8 °C 13,8 °C 11,1 km/h (2 Bft)
17.05.2024 23:00 22,3 °C 13,4 °C 55 % 83 % 1009,0 hPa 0,0 l/m² 5,4 km/h (2 Bft) O-NO 0,00 h 0 W/m² 10,5 °C 13,3 °C 8,6 km/h (2 Bft)
18.05.2024 00:00 22,3 °C 13,2 °C 55 % 84 % 1009,0 hPa 0,0 l/m² 4,4 km/h (1 Bft) O-NO 0,00 h 0 W/m² 10,6 °C 13,2 °C 7,2 km/h (2 Bft)
18.05.2024 01:00 22,3 °C 13,5 °C 55 % 84 % 1008,9 hPa 0,0 l/m² 3,3 km/h (1 Bft) O-NO 0,00 h 0 W/m² 10,9 °C 13,4 °C 6,1 km/h (2 Bft)
18.05.2024 02:00 22,2 °C 13,4 °C 55 % 85 % 1008,7 hPa 0,0 l/m² 3,9 km/h (1 Bft) O-NO 0,00 h 0 W/m² 10,9 °C 13,4 °C 6,5 km/h (2 Bft)
18.05.2024 03:00 22,2 °C 13,3 °C 55 % 85 % 1008,6 hPa 0,0 l/m² 4,3 km/h (1 Bft) O-NO 0,00 h 0 W/m² 10,9 °C 13,3 °C 7,7 km/h (2 Bft)
18.05.2024 04:00 22,2 °C 12,7 °C 55 % 87 % 1008,5 hPa 0,0 l/m² 2,8 km/h (1 Bft) O-NO 0,00 h 0 W/m² 10,6 °C 12,7 °C 5,0 km/h (1 Bft)
18.05.2024 05:00 22,1 °C 12,7 °C 55 % 89 % 1008,6 hPa 0,0 l/m² 1,7 km/h (1 Bft) N-NO 0,00 h 7 W/m² 10,9 °C 12,7 °C 4,0 km/h (1 Bft)
18.05.2024 06:00 22,1 °C 13,3 °C 55 % 89 % 1008,8 hPa 0,0 l/m² 3,0 km/h (1 Bft) NO 0,13 h 37 W/m² 11,5 °C 13,3 °C 6,0 km/h (2 Bft)
18.05.2024 07:00 22,0 °C 14,0 °C 55 % 87 % 1008,9 hPa 0,0 l/m² 3,4 km/h (1 Bft) O-NO 0,98 h 113 W/m² 11,9 °C 14,0 °C 5,8 km/h (2 Bft)
18.05.2024 08:00 22,1 °C 15,0 °C 56 % 84 % 1009,3 hPa 0,0 l/m² 1,9 km/h (1 Bft) O-NO 1,00 h 207 W/m² 12,3 °C 15,0 °C 3,9 km/h (1 Bft)
18.05.2024 09:00 22,2 °C 15,5 °C 56 % 83 % 1009,5 hPa 0,0 l/m² 2,4 km/h (1 Bft) NO 1,02 h 236 W/m² 12,6 °C 15,5 °C 4,6 km/h (1 Bft)
18.05.2024 10:00 22,2 °C 16,2 °C 56 % 83 % 1009,7 hPa 0,0 l/m² 5,0 km/h (1 Bft) O 0,98 h 391 W/m² 13,2 °C 16,0 °C 8,6 km/h (2 Bft)
18.05.2024 11:00 22,5 °C 17,4 °C 57 % 78 % 1009,9 hPa 0,0 l/m² 6,1 km/h (2 Bft) O 1,00 h 605 W/m² 13,7 °C 17,1 °C 10,3 km/h (2 Bft)
18.05.2024 12:00 22,5 °C 16,0 °C 58 % 83 % 1009,9 hPa 0,0 l/m² 4,4 km/h (1 Bft) O-SO 1,00 h 138 W/m² 13,0 °C 15,5 °C 7,8 km/h (2 Bft)
18.05.2024 13:00 22,4 °C 15,0 °C 57 % 89 % 1010,3 hPa 0,2 l/m² 4,5 km/h (1 Bft) W-SW 1,00 h 73 W/m² 13,1 °C 14,9 °C 7,2 km/h (2 Bft)
18.05.2024 14:00 22,3 °C 15,4 °C 57 % 88 % 1010,3 hPa 0,2 l/m² 0,4 km/h (0 Bft) W 1,00 h 204 W/m² 13,3 °C 15,4 °C 1,4 km/h (1 Bft)
18.05.2024 15:00 22,3 °C 16,2 °C 57 % 84 % 1010,4 hPa 0,0 l/m² 1,7 km/h (1 Bft) W 1,02 h 261 W/m² 13,5 °C 16,2 °C 3,7 km/h (1 Bft)
18.05.2024 16:00 22,3 °C 16,5 °C 57 % 81 % 1010,2 hPa 0,0 l/m² 2,8 km/h (1 Bft) W 1,00 h 171 W/m² 13,2 °C 16,5 °C 5,4 km/h (1 Bft)
18.05.2024 17:00 22,3 °C 17,0 °C 57 % 78 % 1009,8 hPa 0,0 l/m² 3,0 km/h (1 Bft) W 1,00 h 340 W/m² 13,2 °C 17,0 °C 6,2 km/h (2 Bft)
18.05.2024 18:00 22,3 °C 17,4 °C 56 % 77 % 1009,6 hPa 0,0 l/m² 2,0 km/h (1 Bft) NW 0,98 h 223 W/m² 13,4 °C 17,4 °C 4,3 km/h (1 Bft)
18.05.2024 19:00 22,2 °C 17,0 °C 57 % 78 % 1009,6 hPa 0,0 l/m² 1,5 km/h (1 Bft) W-SW 1,00 h 102 W/m² 13,2 °C 17,0 °C 2,7 km/h (1 Bft)
18.05.2024 20:00 22,2 °C 15,8 °C 57 % 81 % 1009,5 hPa 0,0 l/m² 0,4 km/h (0 Bft) W-SW 0,07 h 20 W/m² 12,6 °C 15,8 °C 1,0 km/h (0 Bft)
18.05.2024 21:00 22,2 °C 13,4 °C 57 % 88 % 1009,7 hPa 0,0 l/m² 0,0 km/h (0 Bft) W-SW 0,00 h 5 W/m² 11,5 °C 13,4 °C 0,0 km/h (0 Bft)
18.05.2024 22:00 22,3 °C 11,9 °C 56 % 90 % 1010,1 hPa 0,0 l/m² 0,0 km/h (0 Bft) W-SW 0,00 h 0 W/m² 10,3 °C 11,9 °C 0,0 km/h (0 Bft)
18.05.2024 23:00 22,1 °C 10,7 °C 56 % 91 % 1010,2 hPa 0,0 l/m² 0,0 km/h (0 Bft) W-SW 0,00 h 0 W/m² 9,3 °C 10,7 °C 0,0 km/h (0 Bft)
19.05.2024 00:00 22,0 °C 10,1 °C 56 % 92 % 1010,2 hPa 0,0 l/m² 0,0 km/h (0 Bft) W-SW 0,00 h 0 W/m² 8,9 °C 10,1 °C 0,0 km/h (0 Bft)
19.05.2024 01:00 22,0 °C 10,2 °C 56 % 93 % 1009,9 hPa 0,0 l/m² 0,0 km/h (0 Bft) W-SW 0,00 h 0 W/m² 9,2 °C 10,2 °C 0,0 km/h (0 Bft)
19.05.2024 02:00 21,9 °C 10,5 °C 56 % 94 % 1009,8 hPa 0,0 l/m² 0,2 km/h (0 Bft) W-SW 0,00 h 0 W/m² 9,6 °C 10,5 °C 0,4 km/h (0 Bft)
19.05.2024 03:00 21,9 °C 11,2 °C 56 % 94 % 1009,6 hPa 0,0 l/m² 0,0 km/h (0 Bft) W-SW 0,00 h 0 W/m² 10,3 °C 11,2 °C 0,0 km/h (0 Bft)
19.05.2024 04:00 21,8 °C 11,7 °C 56 % 94 % 1009,3 hPa 0,0 l/m² 0,0 km/h (0 Bft) W-SW 0,00 h 0 W/m² 10,8 °C 11,7 °C 0,0 km/h (0 Bft)
19.05.2024 05:00 21,8 °C 11,8 °C 56 % 94 % 1009,3 hPa 0,0 l/m² 0,0 km/h (0 Bft) W-SW 0,00 h 9 W/m² 10,8 °C 11,8 °C 0,0 km/h (0 Bft)
19.05.2024 06:00 21,7 °C 12,1 °C 56 % 95 % 1009,7 hPa 0,0 l/m² 0,0 km/h (0 Bft) W-SW 0,00 h 21 W/m² 11,3 °C 12,1 °C 0,0 km/h (0 Bft)
19.05.2024 07:00 21,7 °C 12,9 °C 55 % 95 % 1009,8 hPa 1,2 l/m² 0,0 km/h (0 Bft) W-SW 0,23 h 39 W/m² 12,1 °C 12,9 °C 0,0 km/h (0 Bft)
19.05.2024 08:00 21,7 °C 14,1 °C 56 % 95 % 1010,0 hPa 0,2 l/m² 0,4 km/h (0 Bft) W-SW 1,00 h 100 W/m² 13,3 °C 14,1 °C 1,1 km/h (0 Bft)
19.05.2024 09:00 21,8 °C 15,2 °C 57 % 94 % 1010,1 hPa 0,0 l/m² 3,5 km/h (1 Bft) SW 1,02 h 203 W/m² 14,1 °C 15,2 °C 5,5 km/h (2 Bft)
19.05.2024 10:00 22,0 °C 17,3 °C 57 % 87 % 1010,0 hPa 0,0 l/m² 5,6 km/h (2 Bft) S-SW 1,00 h 534 W/m² 15,0 °C 17,1 °C 8,6 km/h (2 Bft)
19.05.2024 11:00 22,1 °C 17,9 °C 57 % 83 % 1010,0 hPa 0,0 l/m² 5,4 km/h (1 Bft) S 1,00 h 420 W/m² 14,9 °C 17,7 °C 7,9 km/h (2 Bft)
19.05.2024 12:00 22,2 °C 16,3 °C 60 % 88 % 1010,0 hPa 0,8 l/m² 8,9 km/h (2 Bft) SW 1,00 h 235 W/m² 14,2 °C 15,1 °C 12,5 km/h (2 Bft)
19.05.2024 13:00 22,2 °C 17,1 °C 60 % 87 % 1009,8 hPa 0,0 l/m² 9,1 km/h (2 Bft) SW 1,00 h 471 W/m² 14,8 °C 15,8 °C 13,2 km/h (3 Bft)
19.05.2024 14:00 22,1 °C 17,0 °C 60 % 85 % 1009,6 hPa 0,8 l/m² 9,4 km/h (2 Bft) SW 1,00 h 285 W/m² 14,4 °C 15,6 °C 13,2 km/h (3 Bft)
19.05.2024 15:00 22,3 °C 17,7 °C 60 % 84 % 1009,0 hPa 0,0 l/m² 9,0 km/h (2 Bft) S 1,00 h 690 W/m² 14,9 °C 16,5 °C 12,3 km/h (2 Bft)
19.05.2024 16:00 22,5 °C 19,5 °C 60 % 77 % 1008,5 hPa 0,0 l/m² 9,7 km/h (2 Bft) SW 1,00 h 548 W/m² 15,4 °C 18,2 °C 13,4 km/h (3 Bft)
19.05.2024 17:00 22,3 °C 19,9 °C 59 % 73 % 1008,2 hPa 0,0 l/m² 10,4 km/h (2 Bft) SW 1,00 h 455 W/m² 14,8 °C 18,4 °C 14,6 km/h (3 Bft)
19.05.2024 18:00 22,2 °C 19,7 °C 59 % 71 % 1008,1 hPa 0,0 l/m² 9,9 km/h (2 Bft) W 1,00 h 308 W/m² 14,1 °C 18,4 °C 14,6 km/h (3 Bft)
19.05.2024 19:00 22,2 °C 17,8 °C 59 % 75 % 1008,3 hPa 0,0 l/m² 2,8 km/h (1 Bft) W 0,98 h 117 W/m² 13,3 °C 17,8 °C 5,2 km/h (1 Bft)
19.05.2024 20:00 22,1 °C 16,7 °C 59 % 80 % 1008,5 hPa 0,0 l/m² 1,0 km/h (0 Bft) NW 0,05 h 30 W/m² 13,1 °C 16,7 °C 2,4 km/h (1 Bft)
19.05.2024 21:00 22,1 °C 14,8 °C 59 % 86 % 1009,2 hPa 0,0 l/m² 1,2 km/h (1 Bft) NW 0,00 h 0 W/m² 12,5 °C 14,8 °C 2,1 km/h (1 Bft)
19.05.2024 22:00 22,1 °C 13,7 °C 59 % 90 % 1009,7 hPa 0,0 l/m² 0,2 km/h (0 Bft) NW 0,00 h 0 W/m² 12,1 °C 13,7 °C 0,5 km/h (0 Bft)
19.05.2024 23:00 22,0 °C 12,7 °C 58 % 92 % 1009,9 hPa 0,0 l/m² 0,1 km/h (0 Bft) NW 0,00 h 0 W/m² 11,5 °C 12,7 °C 0,4 km/h (0 Bft)
Min-Datum _ 19.05.24 14.05.24 13.05.24 15.05.24 17.05.24 - 19.05.24 - - - 14.05.24 14.05.24 19.05.24
_ Min-Zeit 09:00 05:48 20:01 16:43 09:36 - 23:08 - - - 05:48 05:48 23:08
Minimum _ 21,7 °C 5,4 °C 47 % 33 % 1006,4 hPa - 0,0 km/h (0 Bft) - - - 3,7 °C 5,4 °C 0,0 km/h (0 Bft)
Max-Datum _ 15.05.24 15.05.24 19.05.24 19.05.24 13.05.24 19.05.24 17.05.24 - 19.05.24 17.05.24 19.05.24 13.05.24 15.05.24
_ Max-Zeit 21:41 15:24 12:25 09:00 00:12 07:30 12:13 - 09:45 14:04 16:08 14:38 12:21
Maximum _ 23,0 °C 26,3 °C 62 % 95 % 1017,6 hPa 1,2 l/m² 36,9 km/h
O-SO (5 Bft)
- 0,08 h 1118 W/m² 16,0 °C 25,0 °C 54,7 km/h
O (7 Bft)
Durchschnitt _ 22,4 °C 16,6 °C 55 % 70 % 1009,9 hPa #3,6 l/m² 9,4 km/h (2 Bft) O #91:32 h 229 W/m² 10,6 °C 15,3 °C 13,7 km/h (3 Bft)
© 2009 Mathias Hoßbach